Time;durP1;ratioP1;P1;durP2;ratioP2;P2;SDS_P1;SDS_P2;PMS_P1;PMS_P2;Temp;Humidity;BMP_temperature;BMP_pressure;BME280_temperature;BME280_humidity;BME280_pressure;Samples;Min_cycle;Max_cycle;Signal;HPM_P1;HPM_P2
2023/09/23 00:02:10;;;;;;;;;;;15.70;93.30;;;;;;5093790;28;19963;-71
2023/09/23 00:04:36;;;;;;;;;;;15.80;93.30;;;;;;5105860;28;19974;-71
2023/09/23 00:07:02;;;;;;;;;;;15.70;93.30;;;;;;5081689;28;19915;-71
2023/09/23 00:09:28;;;;;;;;;;;15.80;93.20;;;;;;5091783;28;19908;-71
2023/09/23 00:11:54;;;;;;;;;;;15.80;93.20;;;;;;5108206;28;20352;-71
2023/09/23 00:14:20;;;;;;;;;;;15.70;93.20;;;;;;5095309;28;19919;-71
2023/09/23 00:16:46;;;;;;;;;;;15.70;93.30;;;;;;5087423;28;19965;-71
2023/09/23 00:19:12;;;;;;;;;;;15.70;93.10;;;;;;5100980;28;19912;-71
2023/09/23 00:21:38;;;;;;;;;;;15.70;93.10;;;;;;5104114;28;19933;-71
2023/09/23 00:24:05;;;;;;;;;;;15.60;93.30;;;;;;5093290;28;20002;-71
2023/09/23 00:26:32;;;;;;;;;;;15.60;93.30;;;;;;5091497;28;19927;-71
2023/09/23 00:28:58;;;;;;;;;;;15.60;93.20;;;;;;5091522;28;20284;-71
2023/09/23 00:31:24;;;;;;;;;;;15.60;93.30;;;;;;5105798;28;19912;-71
2023/09/23 00:33:50;;;;;;;;;;;15.60;93.30;;;;;;5091033;28;19912;-71
2023/09/23 00:36:16;;;;;;;;;;;15.60;93.30;;;;;;5090937;28;19923;-71
2023/09/23 00:38:41;;;;;;;;;;;15.60;93.30;;;;;;5091399;28;20071;-71
2023/09/23 00:41:08;;;;;;;;;;;15.60;93.30;;;;;;5101354;28;19915;-71
2023/09/23 00:43:34;;;;;;;;;;;15.60;93.30;;;;;;5102423;28;19908;-71
2023/09/23 00:46:00;;;;;;;;;;;15.60;93.40;;;;;;5093970;28;19916;-71
2023/09/23 00:48:26;;;;;;;;;;;15.60;93.30;;;;;;5098348;28;19912;-71
2023/09/23 00:50:53;;;;;;;;;;;15.60;93.30;;;;;;5099069;28;20408;-71
2023/09/23 00:53:20;;;;;;;;;;;15.60;93.30;;;;;;5105260;28;19947;-71
2023/09/23 00:55:55;;;;;;;;;;;15.50;93.30;;;;;;5106434;28;20023;-71
2023/09/23 00:58:22;;;;;;;;;;;15.60;93.30;;;;;;5099137;28;19912;-71
2023/09/23 01:00:48;;;;;;;;;;;15.50;93.30;;;;;;5101828;28;19912;-71
2023/09/23 01:03:15;;;;;;;;;;;15.50;93.30;;;;;;5093700;28;19923;-71
2023/09/23 01:05:41;;;;;;;;;;;15.60;93.40;;;;;;5110773;27;19951;-71
2023/09/23 01:08:27;;;;;;;;;;;15.50;93.20;;;;;;5100206;28;19962;-71
2023/09/23 01:10:52;;;;;;;;;;;15.50;93.30;;;;;;5094113;28;19912;-71
2023/09/23 01:13:22;;;;;;;;;;;15.50;93.30;;;;;;5101703;28;19923;-71
2023/09/23 01:15:48;;;;;;;;;;;15.50;93.30;;;;;;5094566;28;19915;-71
2023/09/23 01:18:14;;;;;;;;;;;15.50;93.30;;;;;;5101081;28;20451;-71
2023/09/23 01:20:42;;;;;;;;;;;15.50;93.20;;;;;;5095813;28;19959;-71
2023/09/23 01:23:10;;;;;;;;;;;15.40;93.40;;;;;;5081176;28;19908;-71
2023/09/23 01:25:36;;;;;;;;;;;15.40;93.40;;;;;;5095678;28;19961;-71
2023/09/23 01:28:04;;;;;;;;;;;15.40;93.40;;;;;;5092284;27;19908;-71
2023/09/23 01:30:29;;;;;;;;;;;15.40;93.40;;;;;;5098727;28;19916;-71
2023/09/23 01:32:56;;;;;;;;;;;15.40;93.30;;;;;;5101135;27;19919;-71
2023/09/23 01:35:22;;;;;;;;;;;15.40;93.40;;;;;;5097965;28;19912;-71
2023/09/23 01:37:49;;;;;;;;;;;15.40;93.40;;;;;;5098014;28;20254;-71
2023/09/23 01:40:17;;;;;;;;;;;15.30;93.30;;;;;;5099323;28;19932;-71
2023/09/23 01:42:43;;;;;;;;;;;15.30;93.40;;;;;;5100054;28;19969;-71
2023/09/23 01:45:10;;;;;;;;;;;15.30;93.40;;;;;;5096296;28;19934;-71
2023/09/23 01:47:35;;;;;;;;;;;15.30;93.30;;;;;;5095519;28;20372;-71
2023/09/23 01:50:01;;;;;;;;;;;15.30;93.40;;;;;;5109264;28;19914;-71
2023/09/23 01:52:29;;;;;;;;;;;15.30;93.40;;;;;;5106588;28;19915;-71
2023/09/23 01:54:54;;;;;;;;;;;15.20;93.40;;;;;;5098721;28;20437;-71
2023/09/23 01:57:20;;;;;;;;;;;15.20;93.40;;;;;;5089846;28;19916;-71
2023/09/23 01:59:46;;;;;;;;;;;15.20;93.40;;;;;;5098114;28;19912;-71
2023/09/23 02:02:11;;;;;;;;;;;15.20;93.40;;;;;;5108273;28;19990;-71
2023/09/23 02:04:39;;;;;;;;;;;15.20;93.50;;;;;;5095807;28;20046;-71
2023/09/23 02:07:06;;;;;;;;;;;15.20;93.40;;;;;;5071071;28;19919;-71
2023/09/23 02:09:33;;;;;;;;;;;15.20;93.40;;;;;;5085653;28;19908;-71
2023/09/23 02:11:59;;;;;;;;;;;15.20;93.40;;;;;;5086585;28;19918;-71
2023/09/23 02:14:24;;;;;;;;;;;15.10;93.40;;;;;;5105085;28;19912;-71
2023/09/23 02:16:51;;;;;;;;;;;15.10;93.50;;;;;;5081609;28;19916;-71
2023/09/23 02:19:18;;;;;;;;;;;15.10;93.50;;;;;;5099938;28;20349;-71
2023/09/23 02:21:43;;;;;;;;;;;15.10;93.50;;;;;;5100555;28;20387;-71
2023/09/23 02:24:09;;;;;;;;;;;15.10;93.40;;;;;;5088592;28;19989;-71
2023/09/23 02:26:35;;;;;;;;;;;15.20;93.40;;;;;;5094620;28;19942;-71
2023/09/23 02:29:00;;;;;;;;;;;15.10;93.40;;;;;;5100016;28;20268;-71
2023/09/23 02:31:26;;;;;;;;;;;15.10;93.40;;;;;;5090597;28;19932;-71
2023/09/23 02:33:51;;;;;;;;;;;15.10;93.30;;;;;;5095596;28;19919;-71
2023/09/23 02:36:17;;;;;;;;;;;15.10;93.40;;;;;;5108240;28;19918;-71
2023/09/23 02:38:42;;;;;;;;;;;15.00;93.50;;;;;;5100580;28;19907;-71
2023/09/23 02:41:08;;;;;;;;;;;15.00;93.40;;;;;;5090267;28;20002;-71
2023/09/23 02:43:34;;;;;;;;;;;15.00;93.50;;;;;;5094178;28;20284;-71
2023/09/23 02:46:02;;;;;;;;;;;15.00;93.50;;;;;;5104918;28;19916;-71
2023/09/23 02:48:28;;;;;;;;;;;15.00;93.40;;;;;;5092040;28;20360;-71
2023/09/23 02:50:58;;;;;;;;;;;15.00;93.30;;;;;;5100862;28;19908;-71
2023/09/23 02:53:24;;;;;;;;;;;15.00;93.50;;;;;;5090603;28;19916;-71
2023/09/23 02:55:59;;;;;;;;;;;15.00;93.50;;;;;;5108886;28;19919;-71
2023/09/23 02:58:24;;;;;;;;;;;15.00;93.50;;;;;;5083872;28;19918;-71
2023/09/23 03:00:57;;;;;;;;;;;15.00;93.50;;;;;;5092844;28;20003;-71
2023/09/23 03:03:23;;;;;;;;;;;15.00;93.50;;;;;;5088380;28;20466;-71
2023/09/23 03:05:54;;;;;;;;;;;15.00;93.40;;;;;;5088633;28;19916;-71
2023/09/23 03:08:22;;;;;;;;;;;14.90;93.50;;;;;;5086548;28;19926;-71
2023/09/23 03:10:49;;;;;;;;;;;14.90;93.50;;;;;;5096816;28;20369;-71
2023/09/23 03:13:15;;;;;;;;;;;14.90;93.40;;;;;;5106320;28;19912;-71
2023/09/23 03:15:48;;;;;;;;;;;14.90;93.50;;;;;;5091368;28;20402;-71
2023/09/23 03:18:27;;;;;;;;;;;14.90;93.50;;;;;;5096050;28;20377;-71
2023/09/23 03:20:56;;;;;;;;;;;14.90;93.50;;;;;;5089132;28;19908;-71
2023/09/23 03:23:23;;;;;;;;;;;14.90;93.50;;;;;;5086076;28;20357;-71
2023/09/23 03:25:48;;;;;;;;;;;14.90;93.50;;;;;;5095663;28;20288;-71
2023/09/23 03:28:15;;;;;;;;;;;14.90;93.60;;;;;;5088790;28;19918;-71
2023/09/23 03:30:43;;;;;;;;;;;14.80;93.50;;;;;;5095275;28;19950;-71
2023/09/23 03:33:08;;;;;;;;;;;14.90;93.50;;;;;;5098629;28;19908;-71
2023/09/23 03:35:36;;;;;;;;;;;14.80;93.60;;;;;;5112656;28;20003;-70
2023/09/23 03:38:03;;;;;;;;;;;14.80;93.50;;;;;;5093865;28;19919;-70
2023/09/23 03:40:29;;;;;;;;;;;14.80;93.40;;;;;;5093552;28;19908;-70
2023/09/23 03:42:55;;;;;;;;;;;14.80;93.40;;;;;;5091837;28;20019;-70
2023/09/23 03:45:20;;;;;;;;;;;14.80;93.50;;;;;;5103534;28;20621;-70
2023/09/23 03:47:46;;;;;;;;;;;14.80;93.50;;;;;;5102702;28;19918;-70
2023/09/23 03:50:12;;;;;;;;;;;14.80;93.50;;;;;;5103894;28;19908;-70
2023/09/23 03:52:38;;;;;;;;;;;14.80;93.50;;;;;;5098926;28;20420;-70
2023/09/23 03:55:04;;;;;;;;;;;14.80;93.50;;;;;;5094388;28;19912;-70
2023/09/23 03:57:29;;;;;;;;;;;14.80;93.50;;;;;;5084371;28;19916;-70
2023/09/23 03:59:55;;;;;;;;;;;14.80;93.60;;;;;;5088882;28;19912;-70
2023/09/23 04:02:23;;;;;;;;;;;14.80;93.60;;;;;;5100438;28;20486;-70
2023/09/23 04:04:49;;;;;;;;;;;14.80;93.40;;;;;;5124764;27;19919;-70
2023/09/23 04:07:16;;;;;;;;;;;14.80;93.50;;;;;;5091909;28;20011;-70
2023/09/23 04:09:41;;;;;;;;;;;14.80;93.50;;;;;;5091690;28;19912;-70
2023/09/23 04:12:08;;;;;;;;;;;14.80;93.60;;;;;;5098460;28;19908;-70
2023/09/23 04:14:34;;;;;;;;;;;14.70;93.50;;;;;;5096965;28;19912;-70
2023/09/23 04:16:59;;;;;;;;;;;14.70;93.50;;;;;;5094364;28;20546;-70
2023/09/23 04:19:26;;;;;;;;;;;14.70;93.40;;;;;;5083849;28;20000;-70
2023/09/23 04:21:52;;;;;;;;;;;14.70;93.50;;;;;;5091727;28;19915;-70
2023/09/23 04:24:17;;;;;;;;;;;14.70;93.60;;;;;;5096985;28;19916;-70
2023/09/23 04:26:43;;;;;;;;;;;14.70;93.60;;;;;;5097533;28;20534;-70
2023/09/23 04:29:08;;;;;;;;;;;14.70;93.50;;;;;;5082037;28;19920;-70
2023/09/23 04:31:34;;;;;;;;;;;14.70;93.50;;;;;;5090075;28;20041;-70
2023/09/23 04:33:59;;;;;;;;;;;14.70;93.60;;;;;;5088119;28;20345;-70
2023/09/23 04:36:25;;;;;;;;;;;14.70;93.50;;;;;;5101664;28;19915;-70
2023/09/23 04:38:51;;;;;;;;;;;14.70;93.60;;;;;;5078290;28;19981;-70
2023/09/23 04:41:16;;;;;;;;;;;14.70;93.50;;;;;;5083228;28;21204;-70
2023/09/23 04:43:42;;;;;;;;;;;14.70;93.50;;;;;;5085897;28;20364;-70
2023/09/23 04:46:09;;;;;;;;;;;14.70;93.60;;;;;;5087238;28;19908;-70
2023/09/23 04:48:34;;;;;;;;;;;14.70;93.60;;;;;;5084920;28;19908;-70
2023/09/23 04:51:00;;;;;;;;;;;14.70;93.60;;;;;;5086311;28;20333;-70
2023/09/23 04:53:27;;;;;;;;;;;14.70;93.50;;;;;;5093269;28;19912;-70
2023/09/23 04:55:52;;;;;;;;;;;14.70;93.50;;;;;;5093967;28;19916;-70
2023/09/23 04:58:18;;;;;;;;;;;14.70;93.60;;;;;;5092361;28;19915;-70
2023/09/23 05:00:43;;;;;;;;;;;14.70;93.50;;;;;;5091929;28;19947;-70
2023/09/23 05:03:09;;;;;;;;;;;14.70;93.50;;;;;;5080388;28;19912;-70
2023/09/23 05:05:35;;;;;;;;;;;14.70;93.50;;;;;;5094459;28;20010;-70
2023/09/23 05:08:02;;;;;;;;;;;14.70;93.50;;;;;;5099394;28;19919;-70
2023/09/23 05:10:28;;;;;;;;;;;14.70;93.50;;;;;;5089511;28;19913;-70
2023/09/23 05:12:54;;;;;;;;;;;14.70;93.50;;;;;;5097899;28;21336;-70
2023/09/23 05:15:19;;;;;;;;;;;14.70;93.50;;;;;;5097263;28;19912;-70
2023/09/23 05:17:45;;;;;;;;;;;14.70;93.40;;;;;;5096134;28;19916;-70
2023/09/23 05:20:19;;;;;;;;;;;14.70;93.50;;;;;;5096134;28;19908;-70
2023/09/23 05:22:45;;;;;;;;;;;14.70;93.50;;;;;;5080876;28;19920;-70
2023/09/23 05:25:11;;;;;;;;;;;14.70;93.50;;;;;;5088834;28;19912;-70
2023/09/23 05:27:39;;;;;;;;;;;14.70;93.50;;;;;;5027017;27;1791887;-70
2023/09/23 05:30:08;;;;;;;;;;;14.60;93.50;;;;;;5081701;28;19912;-70
2023/09/23 05:32:37;;;;;;;;;;;14.70;93.50;;;;;;5090316;28;20573;-70
2023/09/23 05:35:09;;;;;;;;;;;14.60;93.50;;;;;;5114123;27;19914;-70
2023/09/23 05:37:35;;;;;;;;;;;14.70;93.50;;;;;;5090370;28;19965;-70
2023/09/23 05:40:00;;;;;;;;;;;14.70;93.50;;;;;;5107560;28;19965;-71
2023/09/23 05:42:26;;;;;;;;;;;14.70;93.60;;;;;;5091317;28;20264;-71
2023/09/23 05:44:52;;;;;;;;;;;14.70;93.60;;;;;;5080120;28;19999;-71
2023/09/23 05:47:17;;;;;;;;;;;14.70;93.50;;;;;;5113993;27;20373;-71
2023/09/23 05:49:43;;;;;;;;;;;14.70;93.60;;;;;;5098755;28;19912;-71
2023/09/23 05:52:08;;;;;;;;;;;14.70;93.60;;;;;;5097098;28;19924;-71
2023/09/23 05:54:34;;;;;;;;;;;14.60;93.60;;;;;;5095370;28;19985;-71
2023/09/23 05:56:59;;;;;;;;;;;14.60;93.60;;;;;;5094136;28;19920;-71
2023/09/23 05:59:25;;;;;;;;;;;14.60;93.50;;;;;;5090513;28;19912;-71
2023/09/23 06:01:50;;;;;;;;;;;14.70;93.50;;;;;;5090502;28;19950;-71
2023/09/23 06:04:16;;;;;;;;;;;14.70;93.50;;;;;;5090370;28;19988;-71
2023/09/23 06:06:41;;;;;;;;;;;14.70;93.60;;;;;;5082727;28;20288;-71
2023/09/23 06:09:07;;;;;;;;;;;14.70;93.60;;;;;;5113043;27;19908;-71
2023/09/23 06:11:33;;;;;;;;;;;14.70;93.60;;;;;;5100332;28;19908;-70
2023/09/23 06:13:59;;;;;;;;;;;14.70;93.60;;;;;;5092881;28;19919;-70
2023/09/23 06:16:24;;;;;;;;;;;14.70;93.60;;;;;;5092772;28;19923;-70
2023/09/23 06:18:50;;;;;;;;;;;14.70;93.90;;;;;;5093282;28;20358;-70
2023/09/23 06:21:16;;;;;;;;;;;14.70;93.50;;;;;;5089385;28;19912;-70
2023/09/23 06:23:41;;;;;;;;;;;14.70;93.50;;;;;;5086872;28;20365;-70
2023/09/23 06:26:08;;;;;;;;;;;14.70;93.50;;;;;;5098120;28;20291;-70
2023/09/23 06:28:34;;;;;;;;;;;14.80;93.50;;;;;;5089949;28;19916;-70
2023/09/23 06:30:59;;;;;;;;;;;14.70;93.50;;;;;;5092420;28;20471;-70
2023/09/23 06:33:25;;;;;;;;;;;14.70;93.50;;;;;;5085071;28;20400;-70
2023/09/23 06:35:50;;;;;;;;;;;14.70;93.60;;;;;;5094321;28;19953;-70
2023/09/23 06:38:16;;;;;;;;;;;14.70;93.60;;;;;;5080574;28;19912;-70
2023/09/23 06:40:42;;;;;;;;;;;14.80;93.60;;;;;;5118702;27;19908;-70
2023/09/23 06:43:07;;;;;;;;;;;14.80;93.50;;;;;;5094361;28;20305;-70
2023/09/23 06:45:33;;;;;;;;;;;14.80;93.50;;;;;;5089204;28;19908;-70
2023/09/23 06:47:58;;;;;;;;;;;14.80;93.50;;;;;;5088913;28;19918;-70
2023/09/23 06:50:24;;;;;;;;;;;14.80;93.60;;;;;;5088836;28;20341;-70
2023/09/23 06:52:49;;;;;;;;;;;14.80;93.50;;;;;;5094320;28;19920;-70
2023/09/23 06:55:15;;;;;;;;;;;14.80;93.60;;;;;;5090636;28;19912;-70
2023/09/23 06:57:40;;;;;;;;;;;14.80;93.80;;;;;;5082940;28;20408;-70
2023/09/23 07:00:07;;;;;;;;;;;14.90;93.50;;;;;;5091941;28;19913;-70
2023/09/23 07:02:33;;;;;;;;;;;14.90;93.60;;;;;;5097498;28;19908;-70
2023/09/23 07:04:59;;;;;;;;;;;14.90;93.50;;;;;;5087350;28;20714;-70
2023/09/23 07:07:24;;;;;;;;;;;14.90;93.50;;;;;;5079689;28;19916;-70
2023/09/23 07:09:50;;;;;;;;;;;15.00;93.50;;;;;;5079513;28;20507;-70
2023/09/23 07:12:15;;;;;;;;;;;14.90;93.50;;;;;;5095471;28;19908;-70
2023/09/23 07:14:41;;;;;;;;;;;15.00;93.50;;;;;;5095532;28;19940;-70
2023/09/23 07:17:06;;;;;;;;;;;15.00;93.50;;;;;;5096696;28;19918;-70
2023/09/23 07:19:32;;;;;;;;;;;15.00;93.40;;;;;;5084063;28;19946;-70
2023/09/23 07:21:58;;;;;;;;;;;15.00;93.40;;;;;;5076845;28;19930;-70
2023/09/23 07:24:26;;;;;;;;;;;15.00;93.40;;;;;;5093206;28;19919;-70
2023/09/23 07:26:54;;;;;;;;;;;15.10;93.50;;;;;;5079949;28;20323;-70
2023/09/23 07:29:20;;;;;;;;;;;15.00;93.50;;;;;;5090968;28;20016;-70
2023/09/23 07:31:45;;;;;;;;;;;15.10;93.50;;;;;;5093987;28;20502;-70
2023/09/23 07:34:14;;;;;;;;;;;15.00;93.60;;;;;;5071081;28;20403;-70
2023/09/23 07:36:40;;;;;;;;;;;15.10;93.50;;;;;;5095379;28;20006;-70
2023/09/23 07:39:05;;;;;;;;;;;15.10;93.50;;;;;;5087107;28;20019;-70
2023/09/23 07:41:31;;;;;;;;;;;15.10;93.40;;;;;;5075878;28;19962;-70
2023/09/23 07:43:57;;;;;;;;;;;15.10;93.40;;;;;;5070927;28;19912;-70
2023/09/23 07:46:22;;;;;;;;;;;15.20;93.30;;;;;;5090777;28;19912;-70
2023/09/23 07:48:48;;;;;;;;;;;15.20;93.40;;;;;;5100253;28;19937;-70
2023/09/23 07:51:13;;;;;;;;;;;15.20;93.30;;;;;;5099609;28;19957;-70
2023/09/23 07:53:39;;;;;;;;;;;15.20;93.30;;;;;;5092974;28;20357;-70
2023/09/23 07:56:05;;;;;;;;;;;15.30;93.30;;;;;;5086875;28;20502;-70
2023/09/23 07:58:31;;;;;;;;;;;15.30;93.40;;;;;;5100832;28;19919;-70
2023/09/23 08:00:56;;;;;;;;;;;15.30;93.30;;;;;;5093286;28;19987;-70
2023/09/23 08:03:26;;;;;;;;;;;15.30;93.20;;;;;;5076250;28;19943;-70
2023/09/23 08:05:52;;;;;;;;;;;15.30;93.30;;;;;;5083440;28;19908;-70
2023/09/23 08:08:18;;;;;;;;;;;15.30;93.20;;;;;;5085323;28;19908;-70
2023/09/23 08:10:43;;;;;;;;;;;15.40;93.20;;;;;;5109892;27;19909;-70
2023/09/23 08:13:09;;;;;;;;;;;15.40;93.30;;;;;;5069506;28;19917;-70
2023/09/23 08:15:34;;;;;;;;;;;15.40;93.50;;;;;;5074724;28;19922;-70
2023/09/23 08:18:00;;;;;;;;;;;15.40;93.20;;;;;;5089202;28;20353;-70
2023/09/23 08:20:25;;;;;;;;;;;15.50;93.20;;;;;;5088992;28;19919;-70
2023/09/23 08:22:51;;;;;;;;;;;15.50;93.20;;;;;;5100107;28;19955;-70
2023/09/23 08:25:20;;;;;;;;;;;15.60;93.20;;;;;;5099599;28;19952;-70
2023/09/23 08:27:45;;;;;;;;;;;15.60;93.10;;;;;;5098608;28;19958;-71
2023/09/23 08:30:12;;;;;;;;;;;15.60;93.10;;;;;;5089304;28;19978;-70
2023/09/23 08:32:38;;;;;;;;;;;15.60;93.10;;;;;;5082942;28;20014;-70
2023/09/23 08:35:05;;;;;;;;;;;15.70;93.10;;;;;;5090935;28;19912;-70
2023/09/23 08:37:31;;;;;;;;;;;15.60;93.10;;;;;;5094325;28;19916;-70
2023/09/23 08:39:56;;;;;;;;;;;15.70;93.10;;;;;;5091213;28;19915;-70
2023/09/23 08:42:24;;;;;;;;;;;15.70;93.00;;;;;;5090807;28;19953;-70
2023/09/23 08:44:50;;;;;;;;;;;15.80;93.00;;;;;;5082784;28;20007;-70
2023/09/23 08:47:18;;;;;;;;;;;15.80;93.00;;;;;;5097469;28;20431;-70
2023/09/23 08:49:46;;;;;;;;;;;15.80;93.10;;;;;;5090805;28;20488;-70
2023/09/23 08:52:12;;;;;;;;;;;15.80;93.00;;;;;;5088699;28;19908;-70
2023/09/23 08:54:38;;;;;;;;;;;15.80;93.00;;;;;;5090549;28;19908;-70
2023/09/23 08:57:04;;;;;;;;;;;15.80;92.90;;;;;;5081947;28;19938;-70
2023/09/23 08:59:31;;;;;;;;;;;15.90;92.90;;;;;;5088857;28;20014;-70
2023/09/23 09:01:56;;;;;;;;;;;16.00;92.90;;;;;;5081401;28;19951;-70
2023/09/23 09:04:22;;;;;;;;;;;16.00;93.00;;;;;;5097966;28;19951;-70
2023/09/23 09:06:51;;;;;;;;;;;16.00;92.80;;;;;;5097085;28;19914;-70
2023/09/23 09:09:17;;;;;;;;;;;16.00;92.90;;;;;;5089476;28;19947;-70
2023/09/23 09:11:49;;;;;;;;;;;16.10;92.80;;;;;;5085170;28;20417;-70
2023/09/23 09:14:15;;;;;;;;;;;16.10;92.80;;;;;;5081940;28;19908;-70
2023/09/23 09:16:41;;;;;;;;;;;16.20;92.70;;;;;;5076772;28;19916;-70
2023/09/23 09:19:06;;;;;;;;;;;16.20;92.70;;;;;;5087625;28;20014;-70
2023/09/23 09:21:32;;;;;;;;;;;16.30;92.60;;;;;;5081977;28;19916;-70
2023/09/23 09:23:58;;;;;;;;;;;16.30;92.50;;;;;;5081927;28;20388;-70
2023/09/23 09:26:24;;;;;;;;;;;16.30;92.60;;;;;;5081110;28;19920;-70
2023/09/23 09:28:49;;;;;;;;;;;16.40;92.50;;;;;;5114581;27;19918;-70
2023/09/23 09:31:16;;;;;;;;;;;16.40;92.50;;;;;;5088857;28;19918;-70
2023/09/23 09:33:43;;;;;;;;;;;16.40;92.50;;;;;;5092842;28;19962;-70
2023/09/23 09:36:09;;;;;;;;;;;16.40;92.50;;;;;;5078080;28;19924;-70
2023/09/23 09:38:36;;;;;;;;;;;16.50;92.40;;;;;;5083502;28;19912;-70
2023/09/23 09:41:03;;;;;;;;;;;16.50;92.40;;;;;;5082101;28;19909;-70
2023/09/23 09:43:33;;;;;;;;;;;16.50;92.40;;;;;;5086956;28;19913;-70
2023/09/23 09:46:01;;;;;;;;;;;16.50;92.40;;;;;;5078367;28;20446;-70
2023/09/23 09:48:30;;;;;;;;;;;16.60;92.50;;;;;;5082434;28;19912;-70
2023/09/23 09:50:56;;;;;;;;;;;16.60;92.40;;;;;;5074479;28;19916;-70
2023/09/23 09:53:22;;;;;;;;;;;16.70;92.40;;;;;;5086187;28;19977;-70
2023/09/23 09:55:49;;;;;;;;;;;16.70;92.30;;;;;;5082080;28;19915;-71
2023/09/23 09:58:14;;;;;;;;;;;16.70;92.30;;;;;;5072760;28;20345;-70
2023/09/23 10:00:43;;;;;;;;;;;16.70;92.30;;;;;;5088479;28;19923;-70
2023/09/23 10:03:11;;;;;;;;;;;16.70;92.30;;;;;;5076139;28;20365;-70
2023/09/23 10:05:49;;;;;;;;;;;16.70;92.30;;;;;;5086704;28;19919;-70
2023/09/23 10:08:19;;;;;;;;;;;16.80;92.20;;;;;;5090735;28;19912;-70
2023/09/23 10:10:48;;;;;;;;;;;16.80;92.20;;;;;;5085882;28;19920;-70
2023/09/23 10:13:14;;;;;;;;;;;16.80;92.20;;;;;;5078732;28;19974;-70
2023/09/23 10:15:40;;;;;;;;;;;16.80;92.20;;;;;;5107957;27;20569;-70
2023/09/23 10:18:32;;;;;;;;;;;16.80;92.20;;;;;;5117544;27;20380;-70
2023/09/23 10:20:58;;;;;;;;;;;16.80;92.20;;;;;;5075013;28;20611;-70
2023/09/23 10:23:24;;;;;;;;;;;16.80;92.10;;;;;;5082806;28;19911;-70
2023/09/23 10:25:50;;;;;;;;;;;16.80;92.20;;;;;;5094293;28;20680;-70
2023/09/23 10:28:28;;;;;;;;;;;16.80;92.20;;;;;;5070197;28;19908;-70
2023/09/23 10:30:57;;;;;;;;;;;16.90;92.20;;;;;;5084060;28;19940;-70
2023/09/23 10:33:25;;;;;;;;;;;17.00;92.10;;;;;;5090446;28;19965;-71
2023/09/23 10:35:50;;;;;;;;;;;17.00;91.90;;;;;;5078896;28;20289;-71
2023/09/23 10:38:26;;;;;;;;;;;17.10;91.90;;;;;;5068142;28;19913;-71
2023/09/23 10:40:53;;;;;;;;;;;17.10;91.80;;;;;;5076358;28;20018;-70
2023/09/23 10:43:20;;;;;;;;;;;17.20;91.80;;;;;;5072061;28;19912;-70
2023/09/23 10:45:45;;;;;;;;;;;17.20;91.80;;;;;;5080286;28;19912;-70
2023/09/23 10:48:13;;;;;;;;;;;17.30;91.60;;;;;;5078747;28;19912;-70
2023/09/23 10:50:40;;;;;;;;;;;17.40;91.50;;;;;;5067743;28;19918;-70
2023/09/23 10:53:06;;;;;;;;;;;17.50;91.50;;;;;;5071683;28;19966;-70
2023/09/23 10:55:34;;;;;;;;;;;17.60;91.50;;;;;;5083107;28;19916;-70
2023/09/23 10:58:00;;;;;;;;;;;17.60;91.40;;;;;;5067565;28;19916;-70
2023/09/23 11:00:25;;;;;;;;;;;17.60;91.60;;;;;;5083966;28;19958;-71
2023/09/23 11:02:54;;;;;;;;;;;17.60;91.30;;;;;;5090856;28;19919;-70
2023/09/23 11:05:20;;;;;;;;;;;17.50;91.60;;;;;;5076577;28;19944;-70
2023/09/23 11:07:46;;;;;;;;;;;17.50;91.50;;;;;;5066301;28;19971;-71
2023/09/23 11:10:12;;;;;;;;;;;17.60;91.50;;;;;;5086517;28;19909;-70
2023/09/23 11:12:41;;;;;;;;;;;17.70;91.50;;;;;;5088156;28;19908;-70
2023/09/23 11:15:07;;;;;;;;;;;17.70;91.50;;;;;;5079478;28;20439;-70
2023/09/23 11:17:34;;;;;;;;;;;17.70;91.30;;;;;;5092710;28;19919;-70
2023/09/23 11:20:00;;;;;;;;;;;17.80;91.30;;;;;;5103904;27;19915;-70
2023/09/23 11:22:29;;;;;;;;;;;17.90;91.30;;;;;;5100388;28;19915;-70
2023/09/23 11:24:56;;;;;;;;;;;18.00;91.20;;;;;;5097965;28;19912;-70
2023/09/23 11:27:22;;;;;;;;;;;18.00;91.10;;;;;;5094347;28;19916;-70
2023/09/23 11:29:48;;;;;;;;;;;18.00;91.10;;;;;;5104727;27;20309;-70
2023/09/23 11:32:13;;;;;;;;;;;18.00;91.00;;;;;;5088445;28;19912;-70
2023/09/23 11:34:39;;;;;;;;;;;18.00;91.20;;;;;;5093737;28;19912;-70
2023/09/23 11:37:04;;;;;;;;;;;18.00;91.20;;;;;;5083260;28;20027;-70
2023/09/23 11:39:37;;;;;;;;;;;18.00;91.00;;;;;;5068129;28;19912;-71
2023/09/23 11:42:03;;;;;;;;;;;18.10;91.20;;;;;;5101600;28;20326;-71
2023/09/23 11:44:29;;;;;;;;;;;18.10;91.20;;;;;;5071691;28;19951;-71
2023/09/23 11:46:54;;;;;;;;;;;18.20;90.80;;;;;;5112076;27;19912;-71
2023/09/23 11:49:20;;;;;;;;;;;18.20;90.90;;;;;;5084366;28;20605;-71
2023/09/23 11:51:46;;;;;;;;;;;18.20;91.00;;;;;;5073431;28;19959;-70
2023/09/23 11:54:12;;;;;;;;;;;18.30;90.90;;;;;;5090508;28;20492;-71
2023/09/23 11:56:37;;;;;;;;;;;18.30;90.40;;;;;;5089770;28;19951;-71
2023/09/23 11:59:03;;;;;;;;;;;18.30;90.90;;;;;;5091263;28;19912;-71
2023/09/23 12:01:28;;;;;;;;;;;18.30;90.50;;;;;;5083790;28;19916;-70
2023/09/23 12:03:58;;;;;;;;;;;18.30;91.00;;;;;;5083945;28;20430;-70
2023/09/23 12:06:26;;;;;;;;;;;18.20;90.90;;;;;;5090065;28;19999;-70
2023/09/23 12:08:51;;;;;;;;;;;18.20;91.00;;;;;;5092483;28;21697;-70
2023/09/23 12:11:19;;;;;;;;;;;18.20;91.10;;;;;;5091013;28;19915;-70
2023/09/23 12:13:45;;;;;;;;;;;18.20;91.00;;;;;;5083120;28;19966;-71
2023/09/23 12:16:12;;;;;;;;;;;18.20;90.80;;;;;;5082800;28;19970;-71
2023/09/23 12:18:37;;;;;;;;;;;18.10;90.90;;;;;;5094153;28;19930;-71
2023/09/23 12:21:04;;;;;;;;;;;18.20;90.90;;;;;;5081020;28;19912;-71
2023/09/23 12:23:31;;;;;;;;;;;18.20;90.90;;;;;;5095485;28;19938;-71
2023/09/23 12:25:56;;;;;;;;;;;18.30;90.60;;;;;;5093352;28;19916;-71
2023/09/23 12:28:22;;;;;;;;;;;18.30;90.50;;;;;;5072346;28;19920;-71
2023/09/23 12:30:48;;;;;;;;;;;18.40;90.80;;;;;;5076197;28;19912;-71
2023/09/23 12:33:13;;;;;;;;;;;18.40;90.50;;;;;;5087882;28;19954;-71
2023/09/23 12:35:39;;;;;;;;;;;18.40;90.70;;;;;;5077640;28;20461;-71
2023/09/23 12:38:04;;;;;;;;;;;18.50;90.40;;;;;;5079394;28;19914;-71
2023/09/23 12:40:32;;;;;;;;;;;18.50;90.30;;;;;;5087167;28;19913;-71
2023/09/23 12:42:57;;;;;;;;;;;18.50;90.60;;;;;;5097499;28;19912;-70
2023/09/23 12:45:22;;;;;;;;;;;18.50;90.40;;;;;;5078331;28;20347;-71
2023/09/23 12:47:48;;;;;;;;;;;18.50;90.70;;;;;;5080798;28;19912;-71
2023/09/23 12:50:13;;;;;;;;;;;18.60;90.40;;;;;;5088865;28;20007;-71
2023/09/23 12:52:39;;;;;;;;;;;18.50;90.70;;;;;;5089589;28;19912;-71
2023/09/23 12:55:05;;;;;;;;;;;18.60;90.70;;;;;;5088731;28;19912;-71
2023/09/23 12:57:33;;;;;;;;;;;18.50;90.40;;;;;;5088712;28;19916;-71
2023/09/23 12:59:58;;;;;;;;;;;18.50;90.70;;;;;;5086593;28;19916;-71
2023/09/23 13:02:24;;;;;;;;;;;18.50;90.40;;;;;;5087341;28;19908;-71
2023/09/23 13:04:49;;;;;;;;;;;18.50;90.40;;;;;;5087618;28;19916;-71
2023/09/23 13:07:16;;;;;;;;;;;18.60;90.20;;;;;;5087783;28;19920;-71
2023/09/23 13:09:41;;;;;;;;;;;18.60;90.10;;;;;;5087944;28;19964;-71
2023/09/23 13:12:07;;;;;;;;;;;18.60;90.50;;;;;;5088767;28;19995;-71
2023/09/23 13:14:32;;;;;;;;;;;18.70;90.60;;;;;;5089427;28;20057;-71
2023/09/23 13:16:58;;;;;;;;;;;18.80;90.50;;;;;;5088951;28;19916;-71
2023/09/23 13:19:24;;;;;;;;;;;18.80;90.20;;;;;;5086406;28;19912;-71
2023/09/23 13:21:49;;;;;;;;;;;18.80;90.30;;;;;;5077616;28;20003;-71
2023/09/23 13:24:14;;;;;;;;;;;18.90;90.00;;;;;;5106339;27;19969;-71
2023/09/23 13:26:40;;;;;;;;;;;18.80;90.20;;;;;;5076779;28;19920;-71
2023/09/23 13:29:06;;;;;;;;;;;18.80;90.20;;;;;;5084982;28;20423;-71
2023/09/23 13:31:31;;;;;;;;;;;18.90;89.90;;;;;;5088707;28;19919;-71
2023/09/23 13:33:57;;;;;;;;;;;18.90;90.20;;;;;;5089390;28;19915;-71
2023/09/23 13:36:22;;;;;;;;;;;18.90;90.30;;;;;;5088050;28;19908;-71
2023/09/23 13:38:48;;;;;;;;;;;18.90;90.20;;;;;;5089987;28;19915;-71
2023/09/23 13:41:14;;;;;;;;;;;18.90;90.20;;;;;;5088528;28;20380;-71
2023/09/23 13:43:40;;;;;;;;;;;18.90;89.30;;;;;;5080728;28;19912;-70
2023/09/23 13:46:05;;;;;;;;;;;19.00;90.20;;;;;;5078347;28;19919;-70
2023/09/23 13:48:31;;;;;;;;;;;19.00;90.10;;;;;;5088659;28;19912;-70
2023/09/23 13:50:56;;;;;;;;;;;18.90;89.20;;;;;;5082096;28;19915;-71
2023/09/23 13:53:22;;;;;;;;;;;19.00;90.30;;;;;;5071179;28;19909;-71
2023/09/23 13:55:47;;;;;;;;;;;18.90;90.10;;;;;;5081356;28;19912;-71
2023/09/23 13:58:13;;;;;;;;;;;19.00;89.80;;;;;;5089341;28;20387;-71
2023/09/23 14:00:38;;;;;;;;;;;19.00;90.00;;;;;;5094252;28;19938;-71
2023/09/23 14:03:04;;;;;;;;;;;19.10;90.00;;;;;;5068943;28;19916;-71
2023/09/23 14:05:30;;;;;;;;;;;19.10;90.00;;;;;;5083327;28;19931;-71
2023/09/23 14:07:55;;;;;;;;;;;19.10;90.00;;;;;;5093783;28;19912;-71
2023/09/23 14:10:21;;;;;;;;;;;19.10;90.00;;;;;;5098644;28;19908;-71
2023/09/23 14:12:47;;;;;;;;;;;19.10;89.80;;;;;;5096136;27;19939;-71